Time;durP1;ratioP1;P1;durP2;ratioP2;P2;SDS_P1;SDS_P2;PMS_P1;PMS_P2;Temp;Humidity;BMP_temperature;BMP_pressure;BME280_temperature;BME280_humidity;BME280_pressure;Samples;Min_cycle;Max_cycle;Signal;HPM_P1;HPM_P2
2022/07/02 00:01:37;;;;;;;4.43;1.83;;;19.60;1.00;;;;;;5033938;28;20555;-86
2022/07/02 00:04:04;;;;;;;6.20;2.40;;;19.50;1.00;;;;;;5034008;28;20181;-86
2022/07/02 00:06:31;;;;;;;6.87;2.23;;;19.40;1.00;;;;;;5033760;28;20206;-86
2022/07/02 00:08:59;;;;;;;6.03;2.20;;;19.30;1.00;;;;;;5034204;28;20162;-87
2022/07/02 00:11:26;;;;;;;7.67;2.10;;;19.30;1.00;;;;;;5033552;28;20268;-84
2022/07/02 00:13:53;;;;;;;4.37;2.20;;;19.20;1.00;;;;;;5034179;28;20182;-79
2022/07/02 00:16:18;;;;;;;5.70;1.97;;;19.10;1.00;;;;;;5048453;28;20227;-86
2022/07/02 00:18:44;;;;;;;3.67;1.67;;;19.20;1.00;;;;;;5033867;28;20189;-84
2022/07/02 00:21:10;;;;;;;6.17;2.20;;;19.20;1.00;;;;;;5034128;28;20177;-86
2022/07/02 00:23:36;;;;;;;4.07;1.83;;;19.10;1.00;;;;;;5033951;28;20188;-86
2022/07/02 00:26:16;;;;;;;4.03;1.80;;;19.30;1.00;;;;;;5032968;28;20218;-80
2022/07/02 00:28:45;;;;;;;3.70;1.77;;;19.30;1.00;;;;;;5033621;28;20194;-85
2022/07/02 00:31:10;;;;;;;5.73;2.00;;;19.30;1.00;;;;;;5033119;28;20170;-85
2022/07/02 00:33:38;;;;;;;4.43;1.70;;;19.20;1.00;;;;;;5033169;28;20177;-81
2022/07/02 00:36:04;;;;;;;6.27;2.03;;;19.10;1.00;;;;;;5033628;28;20264;-77
2022/07/02 00:38:30;;;;;;;6.93;2.00;;;19.00;1.00;;;;;;5033375;28;20169;-85
2022/07/02 00:40:57;;;;;;;4.47;1.80;;;18.80;1.00;;;;;;5033176;28;20203;-80
2022/07/02 00:43:23;;;;;;;5.60;1.70;;;18.70;1.00;;;;;;5065464;28;20182;-78
2022/07/02 00:45:50;;;;;;;5.43;1.90;;;18.50;1.00;;;;;;5033516;28;20260;-85
2022/07/02 00:48:16;;;;;;;4.03;1.63;;;18.40;1.00;;;;;;5033244;28;20276;-84
2022/07/02 00:50:42;;;;;;;4.07;1.63;;;18.20;1.00;;;;;;5033569;28;20198;-82
2022/07/02 00:53:07;;;;;;;9.47;2.00;;;18.30;1.00;;;;;;5033225;28;20162;-80
2022/07/02 00:55:33;;;;;;;9.13;1.80;;;18.20;1.40;;;;;;5034099;28;20181;-84
2022/07/02 00:57:59;;;;;;;6.77;2.20;;;18.30;2.60;;;;;;5033394;28;20535;-81
2022/07/02 01:00:25;;;;;;;3.93;1.80;;;18.40;2.00;;;;;;5033236;28;20179;-84
2022/07/02 01:02:52;;;;;;;5.23;2.10;;;18.40;1.00;;;;;;5033188;28;20174;-84
2022/07/02 01:05:20;;;;;;;5.97;2.17;;;18.40;3.20;;;;;;5038514;28;20154;-78
2022/07/02 01:10:16;;;;;;;7.17;1.93;;;18.50;3.80;;;;;;5050189;28;20185;-81
2022/07/02 01:10:44;;;;;;;4.83;2.30;;;18.50;4.60;;;;;;5052773;28;20174;-78
2022/07/02 01:13:14;;;;;;;8.53;2.47;;;18.40;5.40;;;;;;5041027;28;20161;-85
2022/07/02 01:15:42;;;;;;;5.03;2.30;;;18.20;10.80;;;;;;5038146;28;20589;-81
2022/07/02 01:18:17;;;;;;;5.63;2.20;;;18.10;17.00;;;;;;5037235;28;20205;-85
2022/07/02 01:20:45;;;;;;;3.63;1.77;;;18.00;17.50;;;;;;5037027;28;20220;-85
2022/07/02 01:23:10;;;;;;;6.73;2.20;;;18.00;17.40;;;;;;5036685;28;20178;-86
2022/07/02 01:25:36;;;;;;;4.90;2.13;;;17.90;17.80;;;;;;5038649;28;20194;-87
2022/07/02 01:28:02;;;;;;;4.10;1.93;;;17.90;18.90;;;;;;5038920;28;20174;-86
2022/07/02 01:30:28;;;;;;;5.73;2.63;;;17.80;18.40;;;;;;5037259;28;20182;-85
2022/07/02 01:32:54;;;;;;;4.23;2.40;;;17.90;19.20;;;;;;5036547;28;20169;-79
2022/07/02 01:35:20;;;;;;;5.83;2.07;;;17.90;18.20;;;;;;5036654;28;20524;-83
2022/07/02 01:37:46;;;;;;;7.83;2.43;;;18.10;15.70;;;;;;5036865;28;20170;-86
2022/07/02 01:40:12;;;;;;;5.90;2.30;;;18.20;14.40;;;;;;5037184;28;20220;-85
2022/07/02 01:42:38;;;;;;;5.93;2.47;;;18.30;12.60;;;;;;5040030;28;20703;-84
2022/07/02 01:45:05;;;;;;;3.50;2.00;;;18.30;11.10;;;;;;5040457;28;20227;-80
2022/07/02 01:47:31;;;;;;;4.77;2.43;;;18.50;5.70;;;;;;5036750;28;20209;-81
2022/07/02 01:49:56;;;;;;;7.90;2.20;;;18.40;4.60;;;;;;5036275;28;20250;-84
2022/07/02 01:52:23;;;;;;;6.43;2.10;;;18.50;3.80;;;;;;5036086;28;20166;-77
2022/07/02 01:54:48;;;;;;;10.23;2.57;;;18.40;5.30;;;;;;5036171;28;20162;-86
2022/07/02 01:57:14;;;;;;;4.33;2.00;;;18.40;2.00;;;;;;5036900;28;20535;-78
2022/07/02 01:59:40;;;;;;;5.27;1.80;;;18.40;1.30;;;;;;5036470;28;20540;-86
2022/07/02 02:02:06;;;;;;;6.67;2.13;;;18.30;1.00;;;;;;5036173;28;20217;-83
2022/07/02 02:04:33;;;;;;;5.93;1.90;;;18.10;6.00;;;;;;5067865;28;20512;-78
2022/07/02 02:06:59;;;;;;;6.27;2.50;;;18.00;8.80;;;;;;5036032;28;20665;-85
2022/07/02 02:09:25;;;;;;;3.67;1.90;;;18.00;8.70;;;;;;5035637;28;20167;-78
2022/07/02 02:11:50;;;;;;;4.67;2.07;;;18.00;7.50;;;;;;5035178;28;20181;-80
2022/07/02 02:14:16;;;;;;;4.67;1.70;;;18.10;4.70;;;;;;5036059;28;20168;-78
2022/07/02 02:16:42;;;;;;;4.73;1.97;;;18.10;3.90;;;;;;5036713;28;20173;-78
2022/07/02 02:19:08;;;;;;;6.77;1.93;;;18.20;1.00;;;;;;5069113;28;20201;-85
2022/07/02 02:21:34;;;;;;;5.93;1.90;;;18.00;2.30;;;;;;5036276;28;20168;-78
2022/07/02 02:23:59;;;;;;;6.33;1.97;;;18.00;4.20;;;;;;5035706;28;20538;-81
2022/07/02 02:26:26;;;;;;;5.13;1.60;;;18.00;2.90;;;;;;5035717;28;20558;-83
2022/07/02 02:28:52;;;;;;;3.37;1.80;;;18.00;3.20;;;;;;5035978;28;20177;-78
2022/07/02 02:31:18;;;;;;;7.03;1.83;;;18.00;2.10;;;;;;5035193;28;20695;-86
2022/07/02 02:33:44;;;;;;;4.87;1.80;;;18.00;1.00;;;;;;5035506;28;20213;-85
2022/07/02 02:36:10;;;;;;;5.37;2.07;;;18.10;1.00;;;;;;5067479;28;20648;-85
2022/07/02 02:38:36;;;;;;;5.50;1.93;;;18.10;1.00;;;;;;5035777;28;20165;-85
2022/07/02 02:41:06;;;;;;;4.80;2.07;;;18.00;1.00;;;;;;5035476;28;20195;-85
2022/07/02 02:43:36;;;;;;;5.60;2.27;;;17.80;3.40;;;;;;5042293;28;20170;-77
2022/07/02 02:46:03;;;;;;;4.37;1.80;;;17.70;9.20;;;;;;5041818;28;20296;-80
2022/07/02 02:48:28;;;;;;;4.80;1.83;;;17.70;6.70;;;;;;5042336;28;20225;-76
2022/07/02 02:50:55;;;;;;;7.30;2.10;;;17.60;6.90;;;;;;5046474;28;20177;-78
2022/07/02 02:53:21;;;;;;;5.90;1.80;;;17.80;2.00;;;;;;5044874;28;20591;-77
2022/07/02 02:55:46;;;;;;;6.00;1.60;;;17.60;7.00;;;;;;5037836;28;20173;-83
2022/07/02 02:58:18;;;;;;;6.20;1.80;;;17.50;11.80;;;;;;5039639;28;20251;-77
2022/07/02 03:00:51;;;;;;;3.60;1.60;;;17.50;12.10;;;;;;5067858;28;20653;-84
2022/07/02 03:03:19;;;;;;;5.70;2.10;;;17.40;14.80;;;;;;5036386;28;20189;-77
2022/07/02 03:05:45;;;;;;;7.47;1.90;;;17.60;12.10;;;;;;5034947;28;20240;-82
2022/07/02 03:08:10;;;;;;;7.00;2.20;;;17.50;16.10;;;;;;5035506;28;20232;-84
2022/07/02 03:10:36;;;;;;;7.73;2.17;;;17.50;18.20;;;;;;5035197;28;20756;-82
2022/07/02 03:13:02;;;;;;;5.80;2.20;;;17.50;16.50;;;;;;5035048;28;20180;-81
2022/07/02 03:15:27;;;;;;;5.40;2.13;;;17.50;18.00;;;;;;5036346;28;20162;-86
2022/07/02 03:17:53;;;;;;;4.90;2.33;;;17.50;15.70;;;;;;5037389;28;20575;-80
2022/07/02 03:20:19;;;;;;;4.83;2.17;;;17.40;19.20;;;;;;5036215;28;20602;-77
2022/07/02 03:22:44;;;;;;;4.80;2.33;;;17.40;21.40;;;;;;5037085;28;20193;-78
2022/07/02 03:25:11;;;;;;;4.83;2.40;;;17.50;18.00;;;;;;5036548;28;20178;-77
2022/07/02 03:27:37;;;;;;;4.23;2.47;;;17.50;18.20;;;;;;5036478;28;20304;-82
2022/07/02 03:30:05;;;;;;;5.80;2.30;;;17.30;24.00;;;;;;5037016;28;20178;-82
2022/07/02 03:32:31;;;;;;;4.00;2.27;;;17.30;25.60;;;;;;5036781;28;20177;-78
2022/07/02 03:34:56;;;;;;;6.27;2.37;;;17.40;22.50;;;;;;5047386;28;20248;-80
2022/07/02 03:37:28;;;;;;;4.30;2.13;;;17.30;24.60;;;;;;5048619;28;20692;-80
2022/07/02 03:39:59;;;;;;;5.33;2.33;;;17.30;27.00;;;;;;5047412;28;20244;-79
2022/07/02 03:42:28;;;;;;;3.70;1.93;;;17.20;28.00;;;;;;5039996;28;20167;-85
2022/07/02 03:44:57;;;;;;;5.87;2.20;;;17.20;27.80;;;;;;5071646;28;20213;-83
2022/07/02 03:47:22;;;;;;;6.87;2.30;;;17.10;29.80;;;;;;5038346;28;20229;-78
2022/07/02 03:49:48;;;;;;;6.07;2.13;;;17.30;30.20;;;;;;5037060;28;20169;-84
2022/07/02 03:52:14;;;;;;;7.27;2.70;;;17.30;28.50;;;;;;5037982;28;20176;-81
2022/07/02 03:54:40;;;;;;;3.87;2.20;;;17.40;27.40;;;;;;5037970;28;20175;-85
2022/07/02 03:57:05;;;;;;;4.57;2.30;;;17.40;27.30;;;;;;5035766;28;20174;-78
2022/07/02 03:59:31;;;;;;;4.17;2.20;;;17.40;25.00;;;;;;5034668;28;20260;-79
2022/07/02 04:01:58;;;;;;;6.60;2.37;;;17.60;18.90;;;;;;5035414;28;20172;-83
2022/07/02 04:04:23;;;;;;;6.87;2.57;;;17.60;16.20;;;;;;5035333;28;20237;-86
2022/07/02 04:06:49;;;;;;;5.00;2.23;;;17.60;17.80;;;;;;5035042;28;20240;-82
2022/07/02 04:09:15;;;;;;;5.13;2.07;;;17.60;17.00;;;;;;5035500;28;20530;-78
2022/07/02 04:11:40;;;;;;;4.20;2.13;;;17.60;17.20;;;;;;5035504;28;20162;-79
2022/07/02 04:14:07;;;;;;;4.80;2.10;;;17.60;16.50;;;;;;5034423;28;20221;-78
2022/07/02 04:16:32;;;;;;;6.00;2.37;;;17.60;12.90;;;;;;5033734;28;20171;-86
2022/07/02 04:18:58;;;;;;;5.87;2.20;;;17.60;13.30;;;;;;5033280;28;20691;-84
2022/07/02 04:21:24;;;;;;;5.13;2.00;;;17.60;12.30;;;;;;5065881;28;20213;-82
2022/07/02 04:23:50;;;;;;;7.07;2.40;;;17.60;12.00;;;;;;5033528;28;20208;-80
2022/07/02 04:26:15;;;;;;;6.40;2.20;;;17.70;9.40;;;;;;5033297;28;20242;-80
2022/07/02 04:28:41;;;;;;;4.80;2.10;;;17.70;9.20;;;;;;5033627;28;20185;-78
2022/07/02 04:31:07;;;;;;;4.60;2.10;;;17.70;5.20;;;;;;5033281;28;20625;-86
2022/07/02 04:33:32;;;;;;;8.83;2.33;;;17.80;4.00;;;;;;5033696;28;20176;-86
2022/07/02 04:35:58;;;;;;;3.23;1.80;;;17.80;1.60;;;;;;5033517;28;20256;-85
2022/07/02 04:38:24;;;;;;;6.97;2.03;;;17.80;2.00;;;;;;5033760;28;20638;-86
2022/07/02 04:40:50;;;;;;;4.90;1.83;;;17.80;3.70;;;;;;5033488;28;20177;-86
2022/07/02 04:43:16;;;;;;;5.30;2.00;;;17.90;3.20;;;;;;5036027;28;20200;-84
2022/07/02 04:45:42;;;;;;;5.27;2.20;;;18.10;1.00;;;;;;5037903;28;20176;-79
2022/07/02 04:48:07;;;;;;;7.50;1.93;;;18.10;1.00;;;;;;5037317;28;20201;-80
2022/07/02 04:50:33;;;;;;;5.07;1.57;;;18.10;1.00;;;;;;5037290;28;20688;-77
2022/07/02 04:52:59;;;;;;;5.37;1.93;;;18.20;1.00;;;;;;5037127;28;20204;-78
2022/07/02 04:55:25;;;;;;;5.13;2.00;;;18.30;1.00;;;;;;5037585;28;20200;-79
2022/07/02 04:57:51;;;;;;;6.33;2.10;;;18.40;1.00;;;;;;5037722;28;20613;-80
2022/07/02 05:00:17;;;;;;;5.13;2.10;;;18.50;1.00;;;;;;5036797;28;20206;-84
2022/07/02 05:02:42;;;;;;;7.07;2.33;;;18.60;1.00;;;;;;5048749;28;20189;-81
2022/07/02 05:05:08;;;;;;;5.53;1.93;;;18.60;1.00;;;;;;5050649;28;20174;-78
2022/07/02 05:07:35;;;;;;;6.07;2.13;;;18.70;1.00;;;;;;5046441;28;20271;-78
2022/07/02 05:10:02;;;;;;;4.97;2.13;;;18.70;1.00;;;;;;5037998;28;20166;-85
2022/07/02 05:12:27;;;;;;;5.60;1.93;;;18.80;1.00;;;;;;5037051;28;20172;-79
2022/07/02 05:14:53;;;;;;;7.27;2.10;;;18.90;1.00;;;;;;5068975;28;20269;-84
2022/07/02 05:17:19;;;;;;;4.53;2.17;;;18.90;1.00;;;;;;5037168;28;20178;-85
2022/07/02 05:19:52;;;;;;;5.00;2.20;;;18.90;1.00;;;;;;5037032;28;20528;-85
2022/07/02 05:22:18;;;;;;;4.17;1.80;;;18.90;1.00;;;;;;5037399;28;20528;-84
2022/07/02 05:24:43;;;;;;;3.37;1.77;;;19.00;1.00;;;;;;5036639;28;20174;-78
2022/07/02 05:27:09;;;;;;;6.30;2.10;;;19.10;1.00;;;;;;5036740;28;20258;-84
2022/07/02 05:29:35;;;;;;;3.43;1.67;;;19.10;1.00;;;;;;5036810;28;20638;-84
2022/07/02 05:32:00;;;;;;;6.03;1.90;;;19.10;1.00;;;;;;5068448;28;20254;-77
2022/07/02 05:34:26;;;;;;;3.63;2.00;;;19.20;1.00;;;;;;5036428;28;20618;-86
2022/07/02 05:36:52;;;;;;;4.73;2.00;;;19.20;1.00;;;;;;5068223;28;20225;-80
2022/07/02 05:39:17;;;;;;;3.93;1.87;;;19.40;1.00;;;;;;5036378;28;20525;-85
2022/07/02 05:41:43;;;;;;;4.87;1.70;;;19.50;1.00;;;;;;5036353;28;20222;-87
2022/07/02 05:44:08;;;;;;;3.47;1.40;;;19.30;1.00;;;;;;5036495;28;20199;-79
2022/07/02 05:46:34;;;;;;;3.63;1.60;;;19.10;1.00;;;;;;5036001;28;20603;-82
2022/07/02 05:49:00;;;;;;;4.73;1.33;;;19.20;1.00;;;;;;5036410;28;20274;-80
2022/07/02 05:51:25;;;;;;;6.03;1.57;;;19.30;1.00;;;;;;5036765;28;20183;-78
2022/07/02 05:53:51;;;;;;;5.67;2.07;;;19.50;1.00;;;;;;5035922;28;20177;-86
2022/07/02 05:56:17;;;;;;;5.13;1.73;;;19.60;1.00;;;;;;5036935;28;20178;-86
2022/07/02 05:58:43;;;;;;;3.10;1.50;;;19.60;1.00;;;;;;5035897;28;20550;-79
2022/07/02 06:01:08;;;;;;;4.17;1.70;;;19.60;1.00;;;;;;5046355;28;20201;-81
2022/07/02 06:03:34;;;;;;;4.10;1.60;;;19.50;1.00;;;;;;5049662;28;20659;-76
2022/07/02 06:08:45;;;;;;;5.27;1.53;;;19.70;1.00;;;;;;5036879;28;20740;-83
2022/07/02 06:11:11;;;;;;;3.57;1.20;;;19.60;1.00;;;;;;5036358;28;20242;-78
2022/07/02 06:13:37;;;;;;;3.43;1.30;;;19.70;99.90;;;;;;5035749;28;20199;-80
2022/07/02 06:16:03;;;;;;;4.13;1.40;;;19.60;99.90;;;;;;5035557;28;20180;-86
2022/07/02 06:18:29;;;;;;;3.10;1.43;;;19.60;99.90;;;;;;5035679;28;20180;-82
2022/07/02 06:20:54;;;;;;;4.40;1.63;;;19.80;1.00;;;;;;5035446;28;20628;-79
2022/07/02 06:23:21;;;;;;;2.93;1.50;;;19.90;1.00;;;;;;5035664;28;20506;-84
2022/07/02 06:25:48;;;;;;;4.70;1.83;;;20.00;1.00;;;;;;5035478;28;20192;-83
2022/07/02 06:28:14;;;;;;;5.63;1.77;;;20.10;1.00;;;;;;5036739;28;20180;-79
2022/07/02 06:30:40;;;;;;;5.33;1.80;;;20.30;1.00;;;;;;5037429;28;20335;-81
2022/07/02 06:33:05;;;;;;;3.30;1.30;;;20.50;99.90;;;;;;5037132;28;20176;-79
2022/07/02 06:35:31;;;;;;;3.43;1.27;;;20.60;99.90;;;;;;5038618;28;20234;-78
2022/07/02 06:37:56;;;;;;;5.30;1.57;;;20.60;99.90;;;;;;5046641;28;20214;-76
2022/07/02 06:40:22;;;;;;;1.93;1.00;;;20.70;99.90;;;;;;5041044;28;20634;-80
2022/07/02 06:42:48;;;;;;;3.40;1.50;;;20.90;99.90;;;;;;5035809;28;20173;-81
2022/07/02 06:45:13;;;;;;;3.10;1.00;;;21.10;1.00;;;;;;5037044;28;20183;-83
2022/07/02 06:47:40;;;;;;;4.47;1.10;;;21.10;1.00;;;;;;5036744;28;20589;-80
2022/07/02 06:50:07;;;;;;;4.30;1.10;;;21.20;1.00;;;;;;5035775;28;20174;-81
2022/07/02 06:52:35;;;;;;;3.57;0.90;;;21.30;99.90;;;;;;5039606;28;20177;-77
2022/07/02 06:55:07;;;;;;;3.20;1.30;;;21.50;1.00;;;;;;5038781;28;20161;-79
2022/07/02 06:57:45;;;;;;;2.83;1.00;;;21.50;99.90;;;;;;5036636;28;20178;-82
2022/07/02 07:00:14;;;;;;;2.60;0.97;;;21.20;1.00;;;;;;5069654;28;20175;-80
2022/07/02 07:02:39;;;;;;;3.47;1.13;;;21.40;21.90;;;;;;5036770;28;20180;-79
2022/07/02 07:05:13;;;;;;;5.40;1.10;;;21.50;1.00;;;;;;5035031;28;20245;-81
2022/07/02 07:07:41;;;;;;;2.13;0.77;;;21.50;1.00;;;;;;5034272;28;20335;-79
2022/07/02 07:10:08;;;;;;;4.80;0.80;;;21.20;99.90;;;;;;5038290;28;20607;-78
2022/07/02 07:12:35;;;;;;;2.93;1.23;;;21.20;99.90;;;;;;5045641;28;20172;-77
2022/07/02 07:15:04;;;;;;;4.30;1.00;;;21.30;32.60;;;;;;5077142;28;20169;-78
2022/07/02 07:17:30;;;;;;;2.10;0.97;;;21.50;99.90;;;;;;5070940;28;20582;-78
2022/07/02 07:19:56;;;;;;;5.27;1.20;;;21.40;99.90;;;;;;5037360;28;20163;-80
2022/07/02 07:22:24;;;;;;;2.83;0.90;;;21.60;1.00;;;;;;5036886;28;20188;-77
2022/07/02 07:24:50;;;;;;;2.03;1.00;;;21.80;1.00;;;;;;5034920;28;20572;-82
2022/07/02 07:27:20;;;;;;;2.93;0.97;;;21.90;1.00;;;;;;5034110;28;20611;-81
2022/07/02 07:29:46;;;;;;;3.13;1.07;;;22.10;1.00;;;;;;5067481;28;20175;-79
2022/07/02 07:32:12;;;;;;;2.63;0.90;;;22.10;99.90;;;;;;5036336;28;20227;-79
2022/07/02 07:34:37;;;;;;;4.63;1.30;;;22.10;99.90;;;;;;5033796;28;20171;-84
2022/07/02 07:37:03;;;;;;;2.13;1.00;;;22.10;99.90;;;;;;5033641;28;20209;-78
2022/07/02 07:39:29;;;;;;;3.47;1.10;;;22.00;1.00;;;;;;5033992;28;20245;-80
2022/07/02 07:41:54;;;;;;;3.60;1.03;;;21.90;29.40;;;;;;5033819;28;20202;-82
2022/07/02 07:44:20;;;;;;;4.90;1.17;;;21.90;1.00;;;;;;5065947;28;20704;-78
2022/07/02 07:46:46;;;;;;;4.20;0.90;;;21.90;99.90;;;;;;5065773;28;20211;-81
2022/07/02 07:49:11;;;;;;;3.87;1.23;;;22.00;99.90;;;;;;5034404;28;20670;-81
2022/07/02 07:51:37;;;;;;;3.57;1.07;;;22.00;99.90;;;;;;5034140;28;20229;-85
2022/07/02 07:54:03;;;;;;;3.13;1.23;;;22.00;1.00;;;;;;5034711;28;20163;-83
2022/07/02 07:56:30;;;;;;;4.83;1.47;;;21.90;1.00;;;;;;5034212;28;20169;-78
2022/07/02 07:58:56;;;;;;;3.40;1.27;;;21.60;99.90;;;;;;5067536;28;20175;-84
2022/07/02 08:01:21;;;;;;;4.20;1.30;;;21.60;99.90;;;;;;5034254;28;20218;-80
2022/07/02 08:03:48;;;;;;;6.80;1.40;;;21.70;99.90;;;;;;5031981;28;20545;-87
2022/07/02 08:06:13;;;;;;;5.93;1.40;;;21.80;99.90;;;;;;5033758;28;20221;-83
2022/07/02 08:08:39;;;;;;;2.40;1.30;;;21.90;99.90;;;;;;5065683;28;20266;-78
2022/07/02 08:11:07;;;;;;;4.83;1.67;;;21.80;82.70;;;;;;5033331;28;20182;-82
2022/07/02 08:13:32;;;;;;;6.20;1.60;;;22.00;98.40;;;;;;5033525;28;20531;-85
2022/07/02 08:15:59;;;;;;;5.30;1.83;;;22.00;99.90;;;;;;5033655;28;20174;-86
2022/07/02 08:18:26;;;;;;;3.77;1.30;;;22.00;78.20;;;;;;5016038;28;20207;-88
2022/07/02 08:20:52;;;;;;;5.50;1.40;;;21.90;1.00;;;;;;5032020;28;20177;-84
2022/07/02 08:23:18;;;;;;;4.33;1.50;;;21.80;99.90;;;;;;5031121;28;20234;-80
2022/07/02 08:25:44;;;;;;;4.27;1.50;;;21.80;99.90;;;;;;5035814;28;20202;-80
2022/07/02 08:28:11;;;;;;;4.20;1.53;;;22.00;99.90;;;;;;5037931;28;20260;-80
2022/07/02 08:30:37;;;;;;;4.90;1.60;;;22.10;99.90;;;;;;5036004;28;20628;-80
2022/07/02 08:33:05;;;;;;;4.93;1.90;;;22.10;99.90;;;;;;5031387;28;20194;-81
2022/07/02 08:35:32;;;;;;;7.50;2.17;;;22.10;99.90;;;;;;5032056;28;20253;-80
2022/07/02 08:37:58;;;;;;;4.87;2.20;;;22.10;99.90;;;;;;5032316;28;20683;-81
2022/07/02 08:40:26;;;;;;;6.30;2.50;;;22.30;99.90;;;;;;5031594;28;20213;-81
2022/07/02 08:42:53;;;;;;;5.27;2.33;;;22.30;99.90;;;;;;5032541;28;20174;-86
2022/07/02 08:45:21;;;;;;;5.97;2.60;;;22.30;99.90;;;;;;5033946;28;20257;-88
2022/07/02 08:47:51;;;;;;;5.90;2.30;;;22.60;99.90;;;;;;5032475;28;20294;-84
2022/07/02 08:50:19;;;;;;;7.37;2.30;;;22.50;99.90;;;;;;5031238;28;20189;-86
2022/07/02 08:52:47;;;;;;;5.27;2.13;;;22.40;99.90;;;;;;5030682;28;20196;-80
2022/07/02 08:55:14;;;;;;;5.97;2.20;;;22.50;99.90;;;;;;5061927;28;21003;-85
2022/07/02 08:57:40;;;;;;;4.77;2.33;;;22.60;99.90;;;;;;5030264;28;20178;-82
2022/07/02 09:00:06;;;;;;;6.37;2.40;;;22.60;99.90;;;;;;5030928;28;20231;-80
2022/07/02 09:02:36;;;;;;;7.03;1.90;;;22.50;99.90;;;;;;5031351;28;20189;-82
2022/07/02 09:05:05;;;;;;;6.93;2.00;;;22.40;99.90;;;;;;5046873;28;20713;-86
2022/07/02 09:07:31;;;;;;;5.27;1.73;;;22.60;99.90;;;;;;5063422;28;20210;-87
2022/07/02 09:09:59;;;;;;;4.00;1.67;;;22.90;99.90;;;;;;5031453;28;20180;-82
2022/07/02 09:12:26;;;;;;;3.20;1.17;;;23.00;17.40;;;;;;5032167;28;20592;-80
2022/07/02 09:14:52;;;;;;;4.93;1.20;;;22.90;39.20;;;;;;5033434;28;20175;-84
2022/07/02 09:17:17;;;;;;;3.10;1.20;;;22.80;80.10;;;;;;5030367;28;20541;-88
2022/07/02 09:19:43;;;;;;;4.23;1.37;;;22.70;99.90;;;;;;5028609;28;20293;-84
2022/07/02 09:22:09;;;;;;;3.17;1.20;;;22.70;99.90;;;;;;5029914;28;20184;-82
2022/07/02 09:24:35;;;;;;;4.87;1.13;;;22.90;1.00;;;;;;5028711;28;20193;-80
2022/07/02 09:27:09;;;;;;;2.37;1.10;;;23.10;19.70;;;;;;5028079;28;20210;-82
2022/07/02 09:29:49;;;;;;;2.97;1.00;;;23.30;1.00;;;;;;5030946;28;20254;-84
2022/07/02 09:32:16;;;;;;;3.17;1.07;;;23.30;99.90;;;;;;5034505;28;20272;-79
2022/07/02 09:34:53;;;;;;;3.70;1.10;;;23.20;99.90;;;;;;5033774;28;20181;-83
2022/07/02 09:37:25;;;;;;;2.57;1.10;;;23.20;81.50;;;;;;5030302;28;20262;-86
2022/07/02 09:39:52;;;;;;;3.87;1.00;;;23.40;1.00;;;;;;5034300;28;20238;-86
2022/07/02 09:42:34;;;;;;;3.87;1.20;;;23.40;1.00;;;;;;5034434;28;20274;-87
2022/07/02 09:45:02;;;;;;;3.57;1.10;;;23.30;1.00;;;;;;5031745;28;20173;-85
2022/07/02 09:47:34;;;;;;;3.43;0.80;;;23.30;99.90;;;;;;5035972;28;20212;-81
2022/07/02 09:50:07;;;;;;;3.47;1.10;;;23.20;1.00;;;;;;5034065;28;20182;-89
2022/07/02 09:52:33;;;;;;;2.63;1.13;;;23.30;1.00;;;;;;5033073;28;20195;-82
2022/07/02 09:55:00;;;;;;;3.20;1.00;;;23.20;1.00;;;;;;5033312;28;20172;-81
2022/07/02 09:57:26;;;;;;;2.77;0.90;;;23.20;1.00;;;;;;5033040;28;20184;-82
2022/07/02 09:59:52;;;;;;;2.63;0.90;;;23.30;1.00;;;;;;5033140;28;20579;-85
2022/07/02 10:02:22;;;;;;;2.80;1.10;;;23.40;1.00;;;;;;5065860;28;20187;-87
2022/07/02 10:04:50;;;;;;;2.80;0.77;;;23.50;99.90;;;;;;5034109;28;20170;-80
2022/07/02 10:07:17;;;;;;;2.60;0.80;;;23.60;49.90;;;;;;5033146;28;20682;-81
2022/07/02 10:09:42;;;;;;;5.70;1.40;;;23.60;1.00;;;;;;5032764;28;20202;-80
2022/07/02 10:12:10;;;;;;;3.23;1.20;;;23.80;99.90;;;;;;5032083;28;20186;-81
2022/07/02 10:14:37;;;;;;;3.10;0.90;;;24.00;1.00;;;;;;5034939;28;20171;-81
2022/07/02 10:17:03;;;;;;;2.10;0.70;;;23.90;1.00;;;;;;5033677;28;20183;-81
2022/07/02 10:19:31;;;;;;;3.03;1.30;;;23.90;99.90;;;;;;5035885;28;20188;-83
2022/07/02 10:21:58;;;;;;;2.23;0.70;;;24.10;1.00;;;;;;5035869;28;20675;-83
2022/07/02 10:24:25;;;;;;;2.53;0.90;;;24.20;99.90;;;;;;5034130;28;20178;-89
2022/07/02 10:26:53;;;;;;;2.43;0.83;;;24.20;99.90;;;;;;5033984;28;20231;-89
2022/07/02 10:29:20;;;;;;;3.17;0.90;;;24.20;99.90;;;;;;5034010;28;20528;-84
2022/07/02 10:31:55;;;;;;;3.20;1.10;;;24.20;99.90;;;;;;5032822;28;20259;-80
2022/07/02 10:34:30;;;;;;;1.60;0.87;;;24.10;1.00;;;;;;5031471;28;20196;-89
2022/07/02 10:36:57;;;;;;;2.53;1.00;;;24.00;1.00;;;;;;5031690;28;20181;-80
2022/07/02 10:39:24;;;;;;;2.20;1.00;;;24.20;1.00;;;;;;5034101;28;20237;-84
2022/07/02 10:41:50;;;;;;;4.80;1.20;;;24.40;1.00;;;;;;5034054;28;20276;-88
2022/07/02 10:44:16;;;;;;;2.37;1.30;;;24.50;99.90;;;;;;5065144;28;20204;-79
2022/07/02 10:46:47;;;;;;;1.40;0.77;;;24.50;99.90;;;;;;5032607;28;20220;-79
2022/07/02 10:49:24;;;;;;;4.23;1.10;;;24.80;74.00;;;;;;5039369;28;20300;-83
2022/07/02 10:51:57;;;;;;;4.40;1.40;;;24.60;29.40;;;;;;5047225;28;20629;-82
2022/07/02 10:54:32;;;;;;;4.93;1.60;;;24.50;99.90;;;;;;5041733;28;20171;-80
2022/07/02 10:56:58;;;;;;;3.67;2.00;;;24.20;99.90;;;;;;5047571;28;20161;-79
2022/07/02 10:59:34;;;;;;;2.63;1.00;;;24.10;99.90;;;;;;5044929;28;20592;-82
2022/07/02 11:02:08;;;;;;;3.30;1.00;;;24.20;99.90;;;;;;5050787;28;20165;-79
2022/07/02 11:04:36;;;;;;;2.47;0.90;;;24.40;1.00;;;;;;5047422;28;20202;-81
2022/07/02 11:07:07;;;;;;;1.63;0.70;;;24.40;99.90;;;;;;5040501;28;20734;-81
2022/07/02 11:09:45;;;;;;;3.10;1.00;;;24.50;1.00;;;;;;5039345;28;20175;-80
2022/07/02 11:12:17;;;;;;;3.30;0.80;;;24.40;1.00;;;;;;5035319;28;20744;-81
2022/07/02 11:14:57;;;;;;;2.77;0.90;;;24.30;21.90;;;;;;5034078;28;20158;-81
2022/07/02 11:17:27;;;;;;;1.73;0.90;;;24.30;99.90;;;;;;5034457;28;20185;-88
2022/07/02 11:19:58;;;;;;;3.20;0.90;;;24.30;99.90;;;;;;5033623;28;20615;-86
2022/07/02 11:22:31;;;;;;;2.67;0.90;;;24.30;1.00;;;;;;5030860;28;20198;-80
2022/07/02 11:24:57;;;;;;;3.70;1.00;;;24.20;1.00;;;;;;5033586;28;20178;-83
2022/07/02 11:27:22;;;;;;;5.57;1.10;;;24.30;99.90;;;;;;5049637;28;20584;-80
2022/07/02 11:29:53;;;;;;;2.53;0.90;;;24.20;99.90;;;;;;5033823;28;20170;-87
2022/07/02 11:32:20;;;;;;;2.30;0.70;;;24.10;1.00;;;;;;5034158;28;20268;-84
2022/07/02 11:34:45;;;;;;;2.40;0.80;;;23.90;1.00;;;;;;5039970;28;20205;-78
2022/07/02 11:37:24;;;;;;;3.57;1.00;;;24.10;99.90;;;;;;5051128;28;20193;-79
2022/07/02 11:39:49;;;;;;;3.27;0.80;;;24.20;99.90;;;;;;5050814;28;20187;-83
2022/07/02 11:42:15;;;;;;;3.07;0.77;;;24.30;20.40;;;;;;5045594;28;20648;-82
2022/07/02 11:44:41;;;;;;;4.43;0.97;;;24.30;1.00;;;;;;5046734;28;20201;-80
2022/07/02 11:47:06;;;;;;;2.07;0.93;;;24.40;5.70;;;;;;5042624;28;20213;-80
2022/07/02 11:49:34;;;;;;;2.53;0.90;;;24.70;70.90;;;;;;5036354;28;20170;-88
2022/07/02 11:52:00;;;;;;;3.23;1.13;;;24.90;1.00;;;;;;5036894;28;20166;-92
2022/07/02 11:54:26;;;;;;;4.30;1.00;;;25.00;1.00;;;;;;5035500;28;20220;-86
2022/07/02 11:56:54;;;;;;;3.47;0.90;;;24.90;1.00;;;;;;5034753;28;20237;-87
2022/07/02 11:59:22;;;;;;;2.40;0.97;;;25.00;99.90;;;;;;5031033;28;20178;-91
2022/07/02 12:01:49;;;;;;;4.13;0.90;;;25.20;99.90;;;;;;5030811;28;20173;-91
2022/07/02 12:04:18;;;;;;;2.67;1.00;;;25.20;99.90;;;;;;5035249;28;20178;-86
2022/07/02 12:06:53;;;;;;;4.47;1.30;;;25.30;99.90;;;;;;5033482;28;20583;-87
2022/07/02 12:09:23;;;;;;;2.73;1.13;;;25.40;99.90;;;;;;5032371;28;20176;-86
2022/07/02 12:11:49;;;;;;;3.73;1.10;;;25.40;48.80;;;;;;5037928;28;20537;-86
2022/07/02 12:14:16;;;;;;;1.73;1.10;;;25.50;1.00;;;;;;5039941;28;20177;-81
2022/07/02 12:16:46;;;;;;;2.63;1.07;;;25.50;1.00;;;;;;5043579;28;20193;-79
2022/07/02 12:19:13;;;;;;;2.53;0.90;;;25.60;43.50;;;;;;5049832;28;20184;-81
2022/07/02 12:21:47;;;;;;;1.63;0.80;;;25.50;1.00;;;;;;5054960;28;20174;-78
2022/07/02 12:24:27;;;;;;;3.47;1.00;;;25.40;1.00;;;;;;5055434;28;20170;-82
2022/07/02 12:27:04;;;;;;;2.47;0.93;;;25.10;1.00;;;;;;5048956;28;20213;-84
2022/07/02 12:30:04;;;;;;;2.70;1.40;;;25.20;54.70;;;;;;5052610;28;20226;-80
2022/07/02 12:32:33;;;;;;;2.47;0.93;;;25.30;99.90;;;;;;5054791;28;20232;-84
2022/07/02 12:35:00;;;;;;;3.70;1.13;;;25.10;99.90;;;;;;5055273;28;20173;-87
2022/07/02 12:37:37;;;;;;;2.53;0.80;;;25.00;99.90;;;;;;5055748;28;20174;-88
2022/07/02 12:40:10;;;;;;;2.60;0.80;;;25.10;99.90;;;;;;5054194;28;20185;-83
2022/07/02 12:42:54;;;;;;;4.07;0.70;;;25.40;99.90;;;;;;5045355;28;20265;-80
2022/07/02 12:45:24;;;;;;;2.20;0.90;;;25.30;99.90;;;;;;5034341;28;20225;-83
2022/07/02 12:47:58;;;;;;;3.00;0.80;;;25.30;99.90;;;;;;5038957;28;20209;-81
2022/07/02 12:50:25;;;;;;;2.43;1.47;;;25.30;1.00;;;;;;5039596;28;20192;-81
2022/07/02 12:52:55;;;;;;;3.13;1.50;;;25.20;2.70;;;;;;5043307;28;20169;-88
2022/07/02 12:55:29;;;;;;;1.97;0.87;;;25.20;99.90;;;;;;5040727;28;20173;-88
2022/07/02 12:58:03;;;;;;;1.70;0.87;;;25.20;43.90;;;;;;5032051;28;20169;-81